createdAt,value
2017-10-30T00:00:30.038Z,87.54
2017-10-30T00:02:57.718Z,87.49
2017-10-30T00:05:25.348Z,87.70
2017-10-30T00:07:53.022Z,87.79
2017-10-30T00:10:20.666Z,87.79
2017-10-30T00:12:48.358Z,88.24
2017-10-30T00:15:15.996Z,88.64
2017-10-30T00:17:43.639Z,89.00
2017-10-30T00:20:11.327Z,88.96
2017-10-30T00:22:38.970Z,88.56
2017-10-30T00:25:06.686Z,88.48
2017-10-30T00:27:34.347Z,88.43
2017-10-30T00:30:02.046Z,88.23
2017-10-30T00:32:29.686Z,88.28
2017-10-30T00:34:57.367Z,88.48
2017-10-30T00:37:25.002Z,88.75
2017-10-30T00:39:52.671Z,89.03
2017-10-30T00:42:21.228Z,89.18
2017-10-30T00:44:48.910Z,89.44
2017-10-30T00:47:16.571Z,89.39
2017-10-30T00:49:44.261Z,89.33
2017-10-30T00:52:11.900Z,89.10
2017-10-30T00:54:39.575Z,88.83
2017-10-30T00:57:07.226Z,88.95
2017-10-30T00:59:34.911Z,88.98
2017-10-30T01:02:02.563Z,89.00
2017-10-30T01:04:30.213Z,89.16
2017-10-30T01:06:57.886Z,89.29
2017-10-30T01:09:25.525Z,89.54
2017-10-30T01:11:53.198Z,89.69
2017-10-30T01:14:20.868Z,89.81
2017-10-30T01:16:48.541Z,89.95
2017-10-30T01:19:16.184Z,90.00
2017-10-30T01:21:43.862Z,89.98
2017-10-30T01:24:11.562Z,89.99
2017-10-30T01:26:39.230Z,89.94
2017-10-30T01:29:06.875Z,89.89
2017-10-30T01:31:34.565Z,89.99
2017-10-30T01:34:02.218Z,89.97
2017-10-30T01:36:29.878Z,89.95
2017-10-30T01:38:57.516Z,90.05
2017-10-30T01:41:25.199Z,90.01
2017-10-30T01:43:52.846Z,89.97
2017-10-30T01:46:20.516Z,89.94
2017-10-30T01:48:48.168Z,89.83
2017-10-30T01:51:15.853Z,89.96
2017-10-30T01:53:43.493Z,90.16
2017-10-30T01:56:11.179Z,90.33
2017-10-30T01:58:38.822Z,90.44
2017-10-30T02:01:07.429Z,90.57
2017-10-30T02:03:35.067Z,90.48
2017-10-30T02:06:02.733Z,90.29
2017-10-30T02:08:30.376Z,89.89
2017-10-30T02:10:58.046Z,89.46
2017-10-30T02:13:25.708Z,89.55
2017-10-30T02:15:53.389Z,89.90
2017-10-30T02:18:21.023Z,90.06
2017-10-30T02:20:48.717Z,90.14
2017-10-30T02:23:16.403Z,90.37
2017-10-30T02:25:44.103Z,90.19
2017-10-30T02:28:11.742Z,89.90
2017-10-30T02:30:39.427Z,89.63
2017-10-30T02:33:07.100Z,89.48
2017-10-30T02:35:34.790Z,89.30
2017-10-30T02:38:02.422Z,89.38
2017-10-30T02:40:30.073Z,89.39
2017-10-30T02:42:57.763Z,89.29
2017-10-30T02:45:25.414Z,89.25
2017-10-30T02:47:53.123Z,89.36
2017-10-30T02:50:20.780Z,89.48
2017-10-30T02:52:48.455Z,89.40
2017-10-30T02:55:16.098Z,89.48
2017-10-30T02:57:43.774Z,89.61
2017-10-30T03:00:11.411Z,89.78
2017-10-30T03:02:39.097Z,90.01
2017-10-30T03:05:06.751Z,90.22
2017-10-30T03:07:34.459Z,90.32
2017-10-30T03:10:02.111Z,90.08
2017-10-30T03:12:29.783Z,90.11
2017-10-30T03:14:57.430Z,90.00
2017-10-30T03:17:25.157Z,89.90
2017-10-30T03:19:52.828Z,89.78
2017-10-30T03:22:20.552Z,89.78
2017-10-30T03:24:48.257Z,90.03
2017-10-30T03:27:15.923Z,90.13
2017-10-30T03:29:43.585Z,90.16
2017-10-30T03:32:11.288Z,90.09
2017-10-30T03:34:38.927Z,89.97
2017-10-30T03:37:06.577Z,90.15
2017-10-30T03:39:34.294Z,89.98
2017-10-30T03:42:01.934Z,89.92
2017-10-30T03:44:29.611Z,89.98
2017-10-30T03:46:57.249Z,89.85
2017-10-30T03:49:24.920Z,89.72
2017-10-30T03:51:52.559Z,89.65
2017-10-30T03:54:20.228Z,89.70
2017-10-30T03:56:47.873Z,89.63
2017-10-30T03:59:15.541Z,89.69
2017-10-30T04:01:43.201Z,89.78
2017-10-30T04:04:10.931Z,89.83
2017-10-30T04:06:38.575Z,89.89
2017-10-30T04:09:06.254Z,89.80
2017-10-30T04:11:33.887Z,89.57
2017-10-30T04:14:01.580Z,89.46
2017-10-30T04:16:29.215Z,89.28
2017-10-30T04:18:56.911Z,89.01
2017-10-30T04:21:24.556Z,88.79
2017-10-30T04:23:52.267Z,88.88
2017-10-30T04:26:19.909Z,88.87
2017-10-30T04:28:47.586Z,88.81
2017-10-30T04:31:15.212Z,88.74
2017-10-30T04:33:42.888Z,88.67
2017-10-30T04:36:10.524Z,88.40
2017-10-30T04:38:38.200Z,88.35
2017-10-30T04:41:05.839Z,88.12
2017-10-30T04:43:33.489Z,88.17
2017-10-30T04:46:01.164Z,88.23
2017-10-30T04:48:28.810Z,88.35
2017-10-30T04:50:56.491Z,88.05
2017-10-30T04:53:24.128Z,88.11
2017-10-30T04:55:51.811Z,88.15
2017-10-30T04:58:19.459Z,88.37
2017-10-30T05:00:47.135Z,88.38
2017-10-30T05:03:14.777Z,88.44
2017-10-30T05:05:42.467Z,88.35
2017-10-30T05:08:10.125Z,88.28
2017-10-30T05:10:37.800Z,88.26
2017-10-30T05:13:05.443Z,88.40
2017-10-30T05:15:33.118Z,88.53
2017-10-30T05:18:00.776Z,88.75
2017-10-30T05:20:28.441Z,88.68
2017-10-30T05:22:56.116Z,88.71
2017-10-30T05:25:23.778Z,88.94
2017-10-30T05:27:51.422Z,89.30
2017-10-30T05:30:19.101Z,89.63
2017-10-30T05:32:46.747Z,89.89
2017-10-30T05:35:14.421Z,89.98
2017-10-30T05:37:42.073Z,89.95
2017-10-30T05:40:09.775Z,89.87
2017-10-30T05:42:37.428Z,89.86
2017-10-30T05:45:05.083Z,89.68
2017-10-30T05:47:32.759Z,89.44
2017-10-30T05:50:00.408Z,89.42
2017-10-30T05:52:28.113Z,89.38
2017-10-30T05:54:55.759Z,89.62
2017-10-30T05:57:23.447Z,89.88
2017-10-30T05:59:51.085Z,90.03
2017-10-30T06:02:18.758Z,90.22
2017-10-30T06:04:46.392Z,90.20
2017-10-30T06:07:14.064Z,90.31
2017-10-30T06:09:41.715Z,90.16
2017-10-30T06:12:09.327Z,90.06
2017-10-30T06:14:36.974Z,89.99
2017-10-30T06:17:04.648Z,89.91
2017-10-30T06:19:32.288Z,89.70
2017-10-30T06:21:59.974Z,89.47
2017-10-30T06:24:27.657Z,89.24
2017-10-30T06:26:55.360Z,89.07
2017-10-30T06:29:23.011Z,88.83
2017-10-30T06:31:50.642Z,88.31
2017-10-30T06:34:18.320Z,88.23
2017-10-30T06:36:45.958Z,88.25
2017-10-30T06:39:13.655Z,88.22
2017-10-30T06:41:41.287Z,88.25
2017-10-30T06:44:08.978Z,88.31
2017-10-30T06:46:36.631Z,88.23
2017-10-30T06:49:04.297Z,88.36
2017-10-30T06:51:31.963Z,87.90
2017-10-30T06:53:59.640Z,87.57
2017-10-30T06:56:27.279Z,87.20
2017-10-30T06:58:54.959Z,86.65
2017-10-30T07:01:22.618Z,86.05
2017-10-30T07:03:50.303Z,84.92
2017-10-30T07:06:17.949Z,85.05
2017-10-30T07:08:45.626Z,84.90
2017-10-30T07:11:13.271Z,84.57
2017-10-30T07:13:40.938Z,84.26
2017-10-30T07:16:08.607Z,83.71
2017-10-30T07:18:36.248Z,83.42
2017-10-30T07:21:03.925Z,82.97
2017-10-30T07:23:31.594Z,82.66
2017-10-30T07:25:59.268Z,82.53
2017-10-30T07:28:26.954Z,82.52
2017-10-30T07:30:54.642Z,81.79
2017-10-30T07:33:22.288Z,81.67
2017-10-30T07:35:49.981Z,81.79
2017-10-30T07:38:17.653Z,81.12
2017-10-30T07:40:45.299Z,80.50
2017-10-30T07:43:12.996Z,80.58
2017-10-30T07:45:40.657Z,80.17
2017-10-30T07:48:08.344Z,80.20
2017-10-30T07:50:36.011Z,80.37
2017-10-30T07:53:03.712Z,79.83
2017-10-30T07:55:31.419Z,80.54
2017-10-30T07:57:59.121Z,80.33
2017-10-30T08:00:26.779Z,81.06
2017-10-30T08:02:54.442Z,80.45
2017-10-30T08:05:22.107Z,78.88
2017-10-30T08:07:49.803Z,79.13
2017-10-30T08:10:17.460Z,78.59
2017-10-30T08:12:45.105Z,79.03
2017-10-30T08:15:12.800Z,77.06
2017-10-30T08:17:40.473Z,77.22
2017-10-30T08:20:08.147Z,76.65
2017-10-30T08:22:35.842Z,76.49
2017-10-30T08:25:03.589Z,76.37
2017-10-30T08:27:31.271Z,75.70
2017-10-30T08:29:59.040Z,74.41
2017-10-30T08:32:26.693Z,75.44
2017-10-30T08:34:54.377Z,75.85
2017-10-30T08:37:22.018Z,75.56
2017-10-30T08:39:49.717Z,75.24
2017-10-30T08:42:17.372Z,74.24
2017-10-30T08:44:45.070Z,73.56
2017-10-30T08:47:12.733Z,74.20
2017-10-30T08:49:40.439Z,73.89
2017-10-30T08:52:08.135Z,73.17
2017-10-30T08:54:35.884Z,73.60
2017-10-30T08:57:03.538Z,73.40
2017-10-30T08:59:31.222Z,72.72
2017-10-30T09:01:58.865Z,73.31
2017-10-30T09:04:26.517Z,73.37
2017-10-30T09:06:54.216Z,74.15
2017-10-30T09:09:21.887Z,72.34
2017-10-30T09:11:49.553Z,72.34
2017-10-30T09:14:17.189Z,72.35
2017-10-30T09:16:44.882Z,73.24
2017-10-30T09:19:12.551Z,72.24
2017-10-30T09:21:40.246Z,72.15
2017-10-30T09:24:07.935Z,72.99
2017-10-30T09:26:35.624Z,72.38
2017-10-30T09:29:03.286Z,73.03
2017-10-30T09:31:31.007Z,72.52
2017-10-30T09:33:58.683Z,70.02
2017-10-30T09:36:26.354Z,71.00
2017-10-30T09:38:54.019Z,72.05
2017-10-30T09:41:21.742Z,70.11
2017-10-30T09:43:49.418Z,71.04
2017-10-30T09:46:17.102Z,69.24
2017-10-30T09:48:44.740Z,67.70
2017-10-30T09:51:12.438Z,68.72
2017-10-30T09:53:40.078Z,65.69
2017-10-30T09:56:07.764Z,68.75
2017-10-30T09:58:35.415Z,67.72
2017-10-30T10:01:03.103Z,67.34
2017-10-30T10:03:30.735Z,68.78
2017-10-30T10:05:58.490Z,66.62
2017-10-30T10:08:26.188Z,67.18
2017-10-30T10:10:53.839Z,66.70
2017-10-30T10:13:21.520Z,65.52
2017-10-30T10:15:49.180Z,65.18
2017-10-30T10:18:16.854Z,66.04
2017-10-30T10:20:44.492Z,64.08
2017-10-30T10:23:12.182Z,63.71
2017-10-30T10:25:39.871Z,64.62
2017-10-30T10:28:07.652Z,63.44
2017-10-30T10:30:35.330Z,63.61
2017-10-30T10:33:03.007Z,63.56
2017-10-30T10:35:30.711Z,61.49
2017-10-30T10:37:58.381Z,61.53
2017-10-30T10:40:25.975Z,61.87
2017-10-30T10:42:53.971Z,61.84
2017-10-30T10:45:21.648Z,63.32
2017-10-30T10:47:49.338Z,61.80
2017-10-30T10:50:16.991Z,63.16
2017-10-30T10:52:44.683Z,61.98
2017-10-30T10:55:12.331Z,59.55
2017-10-30T10:57:40.005Z,60.89
2017-10-30T11:00:07.678Z,60.49
2017-10-30T11:02:35.333Z,60.96
2017-10-30T11:05:02.944Z,59.97
2017-10-30T11:07:30.580Z,60.14
2017-10-30T11:09:58.275Z,59.71
2017-10-30T11:12:25.915Z,60.57
2017-10-30T11:14:53.575Z,62.53
2017-10-30T11:17:21.219Z,61.13
2017-10-30T11:19:48.914Z,61.25
2017-10-30T11:22:16.565Z,62.52
2017-10-30T11:24:44.239Z,61.48
2017-10-30T11:27:11.885Z,62.76
2017-10-30T11:29:39.859Z,60.53
2017-10-30T11:32:07.542Z,61.45
2017-10-30T11:34:35.211Z,58.33
2017-10-30T11:37:02.839Z,58.21
2017-10-30T11:39:30.484Z,58.66
2017-10-30T11:41:58.135Z,56.29
2017-10-30T11:44:25.855Z,54.83
2017-10-30T11:46:53.500Z,58.29
2017-10-30T11:49:21.148Z,58.10
2017-10-30T11:51:48.811Z,56.77
2017-10-30T11:54:16.475Z,58.36
2017-10-30T11:56:44.163Z,57.21
2017-10-30T11:59:11.836Z,56.17
2017-10-30T12:01:39.555Z,58.07
2017-10-30T12:04:07.225Z,54.02
2017-10-30T12:06:34.935Z,56.87
2017-10-30T12:09:02.575Z,56.15
2017-10-30T12:11:30.254Z,55.87
2017-10-30T12:13:57.925Z,58.29
2017-10-30T12:16:25.659Z,57.77
2017-10-30T12:18:53.323Z,55.90
2017-10-30T12:21:21.004Z,55.21
2017-10-30T12:23:48.652Z,55.15
2017-10-30T12:26:16.340Z,55.39
2017-10-30T12:28:43.923Z,56.39
2017-10-30T12:31:11.603Z,54.20
2017-10-30T12:33:39.299Z,53.61
2017-10-30T12:36:06.956Z,55.59
2017-10-30T12:38:34.651Z,54.68
2017-10-30T12:41:02.337Z,54.35
2017-10-30T12:43:30.010Z,53.69
2017-10-30T12:45:57.658Z,55.17
2017-10-30T12:48:25.355Z,54.66
2017-10-30T12:50:53.002Z,53.46
2017-10-30T12:53:20.695Z,53.74
2017-10-30T12:55:48.294Z,55.35
2017-10-30T12:58:16.004Z,53.65
2017-10-30T13:00:43.679Z,51.79
2017-10-30T13:03:11.354Z,53.39
2017-10-30T13:05:39.028Z,52.82
2017-10-30T13:08:06.682Z,52.65
2017-10-30T13:10:34.383Z,54.72
2017-10-30T13:13:02.074Z,53.44
2017-10-30T13:15:29.758Z,53.17
2017-10-30T13:17:57.396Z,53.54
2017-10-30T13:20:25.104Z,52.49
2017-10-30T13:22:52.686Z,53.11
2017-10-30T13:25:20.380Z,51.82
2017-10-30T13:27:48.027Z,52.93
2017-10-30T13:30:15.743Z,51.84
2017-10-30T13:32:43.378Z,51.92
2017-10-30T13:35:11.061Z,53.40
2017-10-30T13:37:39.028Z,55.47
2017-10-30T13:40:06.705Z,51.87
2017-10-30T13:42:34.357Z,53.37
2017-10-30T13:45:02.033Z,55.03
2017-10-30T13:47:29.703Z,55.93
2017-10-30T13:49:57.337Z,56.62
2017-10-30T13:52:25.023Z,55.17
2017-10-30T13:54:52.672Z,54.00
2017-10-30T13:57:20.347Z,53.57
2017-10-30T13:59:47.983Z,54.31
2017-10-30T14:02:16.126Z,53.42
2017-10-30T14:04:43.778Z,52.02
2017-10-30T14:07:11.478Z,52.39
2017-10-30T14:09:39.109Z,52.02
2017-10-30T14:12:06.988Z,53.24
2017-10-30T14:14:34.659Z,50.76
2017-10-30T14:17:02.320Z,53.75
2017-10-30T14:19:30.012Z,51.40
2017-10-30T14:21:57.668Z,50.29
2017-10-30T14:24:25.353Z,53.44
2017-10-30T14:26:52.992Z,51.50
2017-10-30T14:29:20.677Z,52.79
2017-10-30T14:31:48.380Z,50.85
2017-10-30T14:34:16.055Z,51.20
2017-10-30T14:36:43.674Z,51.74
2017-10-30T14:39:11.347Z,52.59
2017-10-30T14:41:38.943Z,52.95
2017-10-30T14:44:06.634Z,53.17
2017-10-30T14:46:34.208Z,54.49
2017-10-30T14:49:01.917Z,54.29
2017-10-30T14:51:29.570Z,55.15
2017-10-30T14:53:57.241Z,55.98
2017-10-30T14:56:24.871Z,56.22
2017-10-30T14:58:52.558Z,54.67
2017-10-30T15:01:20.165Z,56.50
2017-10-30T15:03:47.806Z,56.21
2017-10-30T15:06:15.488Z,57.52
2017-10-30T15:08:43.139Z,58.27
2017-10-30T15:11:10.828Z,57.37
2017-10-30T15:13:38.465Z,57.49
2017-10-30T15:16:06.143Z,58.98
2017-10-30T15:18:33.782Z,58.64
2017-10-30T15:21:01.469Z,59.27
2017-10-30T15:23:29.110Z,60.02
2017-10-30T15:25:56.786Z,60.73
2017-10-30T15:28:24.441Z,62.82
2017-10-30T15:30:52.188Z,63.95
2017-10-30T15:33:19.848Z,64.21
2017-10-30T15:35:47.524Z,63.49
2017-10-30T15:38:15.164Z,63.03
2017-10-30T15:40:42.866Z,63.89
2017-10-30T15:43:10.518Z,64.08
2017-10-30T15:45:38.224Z,64.28
2017-10-30T15:48:05.892Z,63.74
2017-10-30T15:50:33.534Z,64.72
2017-10-30T15:53:01.216Z,64.78
2017-10-30T15:55:28.866Z,65.25
2017-10-30T15:57:56.548Z,66.66
2017-10-30T16:00:24.199Z,68.23
2017-10-30T16:02:51.878Z,69.12
2017-10-30T16:05:19.508Z,69.64
2017-10-30T16:07:47.172Z,70.40
2017-10-30T16:10:14.831Z,71.05
2017-10-30T16:12:42.518Z,71.58
2017-10-30T16:15:10.174Z,71.91
2017-10-30T16:17:37.858Z,72.11
2017-10-30T16:20:05.490Z,72.57
2017-10-30T16:22:33.193Z,73.62
2017-10-30T16:25:00.831Z,74.73
2017-10-30T16:27:28.514Z,75.23
2017-10-30T16:29:56.177Z,75.08
2017-10-30T16:32:23.890Z,75.02
2017-10-30T16:34:51.559Z,75.04
2017-10-30T16:37:20.256Z,75.07
2017-10-30T16:39:47.901Z,75.15
2017-10-30T16:42:15.584Z,74.95
2017-10-30T16:44:43.266Z,74.79
2017-10-30T16:47:10.888Z,74.78
2017-10-30T16:49:38.608Z,74.93
2017-10-30T16:52:06.248Z,75.31
2017-10-30T16:54:33.938Z,75.82
2017-10-30T16:57:01.589Z,76.30
2017-10-30T16:59:29.282Z,76.51
2017-10-30T17:01:56.923Z,76.71
2017-10-30T17:04:24.611Z,77.14
2017-10-30T17:06:52.293Z,77.52
2017-10-30T17:09:19.983Z,78.14
2017-10-30T17:11:47.573Z,78.66
2017-10-30T17:14:15.288Z,79.31
2017-10-30T17:16:42.951Z,80.06
2017-10-30T17:19:10.634Z,80.67
2017-10-30T17:21:38.288Z,80.94
2017-10-30T17:24:13.757Z,81.32
2017-10-30T17:26:41.440Z,81.55
2017-10-30T17:29:09.083Z,81.72
2017-10-30T17:31:36.820Z,82.11
2017-10-30T17:34:04.476Z,82.59
2017-10-30T17:36:32.165Z,83.09
2017-10-30T17:38:59.807Z,82.78
2017-10-30T17:41:27.679Z,82.38
2017-10-30T17:43:55.347Z,82.08
2017-10-30T17:46:23.030Z,81.85
2017-10-30T17:48:50.674Z,81.85
2017-10-30T17:51:18.354Z,82.06
2017-10-30T17:53:46.004Z,82.43
2017-10-30T17:56:13.716Z,82.58
2017-10-30T17:58:41.361Z,82.71
2017-10-30T18:01:09.025Z,82.91
2017-10-30T18:03:36.673Z,83.14
2017-10-30T18:06:04.372Z,83.56
2017-10-30T18:08:32.029Z,84.27
2017-10-30T18:10:59.734Z,84.67
2017-10-30T18:13:27.389Z,84.95
2017-10-30T18:15:55.067Z,85.52
2017-10-30T18:18:22.722Z,86.00
2017-10-30T18:20:50.406Z,86.53
2017-10-30T18:23:18.055Z,86.60
2017-10-30T18:25:45.736Z,86.58
2017-10-30T18:28:13.397Z,86.93
2017-10-30T18:30:41.149Z,86.97
2017-10-30T18:33:08.810Z,87.05
2017-10-30T18:35:36.461Z,87.16
2017-10-30T18:38:04.165Z,87.33
2017-10-30T18:40:31.818Z,87.52
2017-10-30T18:42:59.532Z,87.52
2017-10-30T18:45:27.181Z,87.60
2017-10-30T18:47:54.889Z,87.56
2017-10-30T18:50:22.561Z,87.74
2017-10-30T18:52:50.235Z,87.73
2017-10-30T18:55:17.886Z,87.57
2017-10-30T18:57:45.570Z,87.17
2017-10-30T19:00:13.228Z,86.27
2017-10-30T19:02:40.932Z,85.64
2017-10-30T19:05:08.580Z,84.96
2017-10-30T19:07:36.278Z,84.61
2017-10-30T19:10:04.822Z,84.46
2017-10-30T19:12:32.538Z,84.77
2017-10-30T19:15:00.210Z,85.27
2017-10-30T19:17:27.854Z,85.37
2017-10-30T19:19:55.482Z,85.19
2017-10-30T19:22:23.158Z,85.14
2017-10-30T19:24:50.785Z,84.71
2017-10-30T19:27:18.432Z,84.63
2017-10-30T19:29:46.125Z,84.52
2017-10-30T19:32:13.846Z,84.36
2017-10-30T19:34:41.521Z,84.16
2017-10-30T19:37:09.162Z,84.14
2017-10-30T19:39:36.851Z,83.92
2017-10-30T19:42:04.513Z,83.93
2017-10-30T19:44:32.209Z,84.12
2017-10-30T19:46:59.833Z,84.28
2017-10-30T19:49:27.520Z,84.35
2017-10-30T19:51:55.182Z,84.50
2017-10-30T19:54:22.873Z,84.72
2017-10-30T19:56:50.514Z,84.83
2017-10-30T19:59:18.198Z,85.11
2017-10-30T20:01:45.864Z,85.35
2017-10-30T20:04:13.549Z,85.56
2017-10-30T20:06:46.773Z,85.49
2017-10-30T20:09:20.019Z,85.37
2017-10-30T20:11:53.200Z,85.52
2017-10-30T20:14:20.868Z,85.45
2017-10-30T20:16:48.708Z,85.45
2017-10-30T20:19:16.355Z,85.63
2017-10-30T20:21:44.034Z,85.72
2017-10-30T20:24:11.705Z,85.85
2017-10-30T20:26:39.408Z,86.15
2017-10-30T20:29:07.072Z,86.50
2017-10-30T20:31:34.789Z,86.84
2017-10-30T20:34:02.467Z,86.95
2017-10-30T20:36:30.144Z,87.00
2017-10-30T20:38:57.804Z,87.08
2017-10-30T20:41:25.533Z,87.18
2017-10-30T20:43:53.178Z,87.27
2017-10-30T20:46:20.877Z,87.45
2017-10-30T20:48:48.519Z,87.64
2017-10-30T20:51:16.210Z,87.71
2017-10-30T20:53:43.875Z,87.86
2017-10-30T20:56:11.585Z,88.09
2017-10-30T20:58:39.283Z,88.22
2017-10-30T21:01:06.870Z,88.36
2017-10-30T21:03:34.588Z,88.45
2017-10-30T21:06:02.217Z,88.63
2017-10-30T21:08:29.907Z,88.68
2017-10-30T21:10:57.575Z,88.73
2017-10-30T21:13:25.247Z,88.83
2017-10-30T21:15:52.938Z,88.89
2017-10-30T21:18:20.622Z,88.92
2017-10-30T21:20:48.281Z,89.02
2017-10-30T21:23:15.977Z,89.00
2017-10-30T21:25:43.618Z,89.06
2017-10-30T21:28:11.313Z,89.06
2017-10-30T21:30:39.810Z,89.02
2017-10-30T21:33:07.493Z,88.90
2017-10-30T21:35:35.130Z,88.80
2017-10-30T21:38:02.816Z,88.66
2017-10-30T21:40:30.486Z,88.63
2017-10-30T21:42:58.166Z,88.68
2017-10-30T21:45:25.819Z,88.48
2017-10-30T21:47:53.478Z,88.50
2017-10-30T21:50:21.173Z,88.26
2017-10-30T21:52:48.822Z,88.28
2017-10-30T21:55:16.511Z,88.16
2017-10-30T21:57:44.155Z,88.15
2017-10-30T22:00:11.872Z,88.14
2017-10-30T22:02:39.496Z,88.12
2017-10-30T22:05:07.183Z,88.15
2017-10-30T22:07:34.827Z,88.29
2017-10-30T22:10:02.503Z,88.33
2017-10-30T22:12:30.166Z,88.36
2017-10-30T22:14:57.857Z,88.38
2017-10-30T22:17:25.500Z,88.49
2017-10-30T22:19:53.192Z,88.50
2017-10-30T22:22:20.857Z,88.28
2017-10-30T22:24:48.566Z,88.37
2017-10-30T22:27:16.211Z,88.22
2017-10-30T22:29:43.852Z,88.20
2017-10-30T22:32:11.556Z,88.38
2017-10-30T22:34:39.204Z,88.27
2017-10-30T22:37:06.873Z,88.29
2017-10-30T22:39:34.509Z,88.33
2017-10-30T22:42:02.195Z,88.43
2017-10-30T22:44:29.832Z,88.51
2017-10-30T22:46:57.525Z,88.51
2017-10-30T22:49:25.164Z,88.62
2017-10-30T22:51:52.834Z,88.67
2017-10-30T22:54:20.478Z,88.74
2017-10-30T22:56:48.158Z,88.83
2017-10-30T22:59:15.802Z,88.93
2017-10-30T23:01:43.527Z,88.92
2017-10-30T23:04:11.161Z,88.91
2017-10-30T23:06:38.822Z,89.17
2017-10-30T23:09:06.470Z,89.14
2017-10-30T23:11:34.127Z,89.34
2017-10-30T23:14:01.821Z,89.44
2017-10-30T23:16:29.462Z,89.60
2017-10-30T23:18:57.146Z,89.67
2017-10-30T23:21:24.798Z,89.75
2017-10-30T23:23:52.491Z,89.70
2017-10-30T23:26:20.210Z,89.74
2017-10-30T23:28:47.909Z,89.71
2017-10-30T23:31:15.613Z,89.77
2017-10-30T23:33:43.290Z,89.78
2017-10-30T23:36:10.953Z,89.80
2017-10-30T23:38:38.643Z,89.88
2017-10-30T23:41:06.269Z,89.99
2017-10-30T23:43:33.963Z,89.97
2017-10-30T23:46:01.623Z,90.04
2017-10-30T23:48:29.261Z,90.19
2017-10-30T23:50:56.878Z,90.10
2017-10-30T23:53:24.506Z,90.03
2017-10-30T23:55:52.197Z,90.04
2017-10-30T23:58:19.834Z,89.98
